createdAt,value
2022-12-31T00:00:38.360Z,100995.84
2022-12-31T00:03:10.400Z,101004.56
2022-12-31T00:05:37.901Z,101009.13
2022-12-31T00:08:05.388Z,101016.38
2022-12-31T00:10:39.791Z,101012.97
2022-12-31T00:13:09.687Z,101003.63
2022-12-31T00:15:38.666Z,101013.09
2022-12-31T00:18:07.327Z,101014.94
2022-12-31T00:20:34.735Z,101017.13
2022-12-31T00:23:01.937Z,101015.56
2022-12-31T00:25:29.152Z,101019.31
2022-12-31T00:27:56.337Z,101016.19
2022-12-31T00:30:23.704Z,101012.66
2022-12-31T00:32:50.868Z,101016.19
2022-12-31T00:35:18.248Z,101014.22
2022-12-31T00:37:45.442Z,101024.00
2022-12-31T00:40:12.733Z,101022.03
2022-12-31T00:42:39.980Z,101022.03
2022-12-31T00:45:08.159Z,101032.84
2022-12-31T00:47:35.296Z,101029.09
2022-12-31T00:50:02.443Z,101021.81
2022-12-31T00:52:29.645Z,101023.16
2022-12-31T00:54:57.834Z,101022.91
2022-12-31T00:57:25.431Z,101023.09
2022-12-31T00:59:52.729Z,101034.56
2022-12-31T01:02:19.980Z,101032.97
2022-12-31T01:04:47.406Z,101032.97
2022-12-31T01:07:14.619Z,101040.38
2022-12-31T01:09:41.984Z,101036.50
2022-12-31T01:12:09.228Z,101031.03
2022-12-31T01:14:36.540Z,101028.44
2022-12-31T01:17:03.706Z,101032.84
2022-12-31T01:19:32.210Z,101039.88
2022-12-31T01:21:59.448Z,101032.84
2022-12-31T01:24:26.779Z,101038.03
2022-12-31T01:26:57.641Z,101046.88
2022-12-31T01:29:26.603Z,101045.97
2022-12-31T01:31:53.942Z,101054.81
2022-12-31T01:34:21.087Z,101059.22
2022-12-31T01:36:48.315Z,101067.03
2022-12-31T01:39:15.900Z,101064.28
2022-12-31T01:41:47.843Z,101058.06
2022-12-31T01:44:23.819Z,101068.94
2022-12-31T01:46:59.045Z,101078.97
2022-12-31T01:49:39.484Z,101079.31
2022-12-31T01:52:28.424Z,101077.22
2022-12-31T01:55:16.634Z,101086.44
2022-12-31T01:57:47.006Z,101089.84
2022-12-31T02:00:16.150Z,101084.75
2022-12-31T02:02:44.483Z,101084.75
2022-12-31T02:06:01.243Z,101079.81
2022-12-31T02:08:28.517Z,101087.34
2022-12-31T02:10:55.856Z,101091.38
2022-12-31T02:13:24.045Z,101096.44
2022-12-31T02:16:24.254Z,101101.84
2022-12-31T02:19:42.062Z,101101.63
2022-12-31T02:22:45.948Z,101098.50
2022-12-31T02:26:13.988Z,101093.31
2022-12-31T02:29:12.126Z,101096.56
2022-12-31T02:32:18.068Z,101112.75
2022-12-31T02:34:56.531Z,101102.59
2022-12-31T02:37:28.534Z,101103.94
2022-12-31T02:39:56.471Z,101100.16
2022-12-31T02:42:23.628Z,101098.50
2022-12-31T02:44:50.753Z,101101.22
2022-12-31T02:48:19.405Z,101108.63
2022-12-31T02:51:18.364Z,101102.09
2022-12-31T02:54:19.771Z,101107.81
2022-12-31T02:57:11.714Z,101107.16
2022-12-31T03:00:39.101Z,101112.50
2022-12-31T03:03:08.147Z,101110.94
2022-12-31T03:05:42.531Z,101109.59
2022-12-31T03:08:09.920Z,101111.94
2022-12-31T03:10:37.436Z,101110.13
2022-12-31T03:13:04.626Z,101113.13
2022-12-31T03:15:34.494Z,101111.94
2022-12-31T03:18:06.464Z,101110.13
2022-12-31T03:21:09.164Z,101112.72
2022-12-31T03:23:50.136Z,101104.94
2022-12-31T03:26:17.440Z,101109.56
2022-12-31T03:28:47.850Z,101114.50
2022-12-31T03:31:16.389Z,101110.84
2022-12-31T03:33:43.816Z,101114.78
2022-12-31T03:36:14.973Z,101115.56
2022-12-31T03:38:42.591Z,101124.09
2022-12-31T03:41:11.695Z,101124.88
2022-12-31T03:43:38.951Z,101123.97
2022-12-31T03:46:06.535Z,101131.59
2022-12-31T03:48:33.780Z,101129.53
2022-12-31T03:51:01.009Z,101124.06
2022-12-31T03:53:28.169Z,101126.25
2022-12-31T03:55:55.740Z,101130.16
2022-12-31T03:58:23.446Z,101140.69
2022-12-31T04:00:51.123Z,101142.72
2022-12-31T04:03:18.517Z,101154.22
2022-12-31T04:05:52.462Z,101160.34
2022-12-31T04:08:19.619Z,101165.03
2022-12-31T04:10:46.759Z,101163.50
2022-12-31T04:13:13.927Z,101156.72
2022-12-31T04:15:41.097Z,101160.13
2022-12-31T04:18:08.347Z,101165.03
2022-12-31T04:20:35.481Z,101163.84
2022-12-31T04:23:02.627Z,101165.81
2022-12-31T04:25:29.789Z,101168.97
2022-12-31T04:27:56.954Z,101168.31
2022-12-31T04:30:24.096Z,101165.31
2022-12-31T04:32:51.358Z,101167.75
2022-12-31T04:35:18.598Z,101170.50
2022-12-31T04:37:45.936Z,101175.31
2022-12-31T04:40:13.293Z,101176.25
2022-12-31T04:42:40.460Z,101171.31
2022-12-31T04:45:08.636Z,101177.72
2022-12-31T04:47:35.965Z,101170.06
2022-12-31T04:50:05.228Z,101171.22
2022-12-31T04:52:35.759Z,101178.88
2022-12-31T04:55:08.204Z,101165.84
2022-12-31T04:57:35.388Z,101173.66
2022-12-31T05:00:02.632Z,101168.19
2022-12-31T05:02:31.309Z,101167.91
2022-12-31T05:04:58.620Z,101177.78
2022-12-31T05:07:25.778Z,101180.66
2022-12-31T05:09:53.174Z,101183.47
2022-12-31T05:12:20.338Z,101188.09
2022-12-31T05:14:47.650Z,101203.41
2022-12-31T05:17:15.002Z,101206.50
2022-12-31T05:19:42.140Z,101199.03
2022-12-31T05:22:27.932Z,101203.34
2022-12-31T05:24:56.250Z,101203.34
2022-12-31T05:27:24.633Z,101201.63
2022-12-31T05:29:51.878Z,101208.25
2022-12-31T05:32:19.241Z,101218.19
2022-12-31T05:34:47.451Z,101205.13
2022-12-31T05:37:14.598Z,101210.16
2022-12-31T05:39:41.796Z,101215.22
2022-12-31T05:42:08.977Z,101220.63
2022-12-31T05:44:36.121Z,101217.72
2022-12-31T05:47:03.305Z,101224.00
2022-12-31T05:49:30.443Z,101230.91
2022-12-31T05:51:57.591Z,101240.91
2022-12-31T05:54:24.782Z,101251.16
2022-12-31T05:56:54.640Z,101250.16
2022-12-31T05:59:22.277Z,101244.50
2022-12-31T06:01:49.774Z,101248.91
2022-12-31T06:04:17.273Z,101253.81
2022-12-31T06:06:44.461Z,101256.91
2022-12-31T06:09:11.767Z,101256.00
2022-12-31T06:11:39.032Z,101260.81
2022-12-31T06:14:06.308Z,101263.69
2022-12-31T06:16:33.553Z,101265.69
2022-12-31T06:19:01.596Z,101271.72
2022-12-31T06:21:30.246Z,101280.91
2022-12-31T06:23:58.833Z,101275.72
2022-12-31T06:26:27.545Z,101277.78
2022-12-31T06:28:54.780Z,101285.59
2022-12-31T06:31:22.095Z,101291.56
2022-12-31T06:33:49.245Z,101296.09
2022-12-31T06:36:16.878Z,101295.22
2022-12-31T06:38:44.831Z,101282.25
2022-12-31T06:41:15.720Z,101280.69
2022-12-31T06:43:43.635Z,101285.13
2022-12-31T06:46:15.802Z,101298.38
2022-12-31T06:48:44.882Z,101307.97
2022-12-31T06:51:20.370Z,101308.25
2022-12-31T06:53:50.742Z,101312.53
2022-12-31T06:56:33.928Z,101315.13
2022-12-31T06:59:03.753Z,101315.78
2022-12-31T07:01:45.789Z,101323.56
2022-12-31T07:04:33.907Z,101334.72
2022-12-31T07:07:32.503Z,101327.81
2022-12-31T07:10:48.375Z,101332.84
2022-12-31T07:13:56.690Z,101342.44
2022-12-31T07:17:27.033Z,101353.47
2022-12-31T07:20:17.288Z,101343.53
2022-12-31T07:22:46.524Z,101346.13
2022-12-31T07:25:16.741Z,101349.66
2022-12-31T07:28:35.068Z,101345.53
2022-12-31T07:31:26.905Z,101342.56
2022-12-31T07:34:25.509Z,101350.66
2022-12-31T07:37:39.949Z,101341.00
2022-12-31T07:40:48.422Z,101349.59
2022-12-31T07:44:00.822Z,101352.47
2022-12-31T07:46:57.730Z,101368.31
2022-12-31T07:49:28.642Z,101365.88
2022-12-31T07:51:57.017Z,101367.63
2022-12-31T07:54:24.325Z,101361.78
2022-12-31T07:56:52.037Z,101371.97
2022-12-31T08:00:08.291Z,101375.19
2022-12-31T08:03:04.190Z,101370.47
2022-12-31T08:06:32.225Z,101384.16
2022-12-31T08:09:28.560Z,101381.09
2022-12-31T08:12:00.276Z,101388.09
2022-12-31T08:14:29.082Z,101398.63
2022-12-31T08:16:57.235Z,101402.84
2022-12-31T08:19:32.419Z,101397.00
2022-12-31T08:22:36.023Z,101401.38
2022-12-31T08:25:21.106Z,101402.16
2022-12-31T08:28:49.409Z,101417.25
2022-12-31T08:31:27.846Z,101403.47
2022-12-31T08:34:30.203Z,101408.31
2022-12-31T08:37:06.635Z,101409.38
2022-12-31T08:40:16.105Z,101411.38
2022-12-31T08:43:04.207Z,101420.69
2022-12-31T08:45:52.745Z,101420.69
2022-12-31T08:48:43.188Z,101418.66
2022-12-31T08:51:23.243Z,101428.53
2022-12-31T08:53:51.251Z,101435.59
2022-12-31T08:56:32.116Z,101441.25
2022-12-31T08:59:50.519Z,101435.31
2022-12-31T09:03:09.558Z,101452.09
2022-12-31T09:06:30.843Z,101459.03
2022-12-31T09:09:38.241Z,101468.38
2022-12-31T09:12:44.894Z,101465.91
2022-12-31T09:15:42.476Z,101464.78
2022-12-31T09:18:12.800Z,101467.16
2022-12-31T09:20:43.468Z,101468.47
2022-12-31T09:23:13.538Z,101465.63
2022-12-31T09:26:11.070Z,101472.84
2022-12-31T09:29:14.808Z,101479.16
2022-12-31T09:32:15.768Z,101470.84
2022-12-31T09:35:15.846Z,101470.91
2022-12-31T09:37:56.728Z,101467.28
2022-12-31T09:40:54.253Z,101475.63
2022-12-31T09:44:04.597Z,101478.00
2022-12-31T09:47:14.617Z,101476.44
2022-12-31T09:50:08.988Z,101472.13
2022-12-31T09:53:17.260Z,101478.47
2022-12-31T09:56:17.787Z,101484.47
2022-12-31T09:59:11.102Z,101471.72
2022-12-31T10:01:51.255Z,101480.28
2022-12-31T10:05:12.626Z,101475.88
2022-12-31T10:08:13.355Z,101476.22
2022-12-31T10:11:03.451Z,101478.50
2022-12-31T10:14:27.391Z,101478.91
2022-12-31T10:17:19.161Z,101485.94
2022-12-31T10:20:09.483Z,101484.56
2022-12-31T10:23:53.004Z,101493.66
2022-12-31T10:26:53.501Z,101492.38
2022-12-31T10:29:48.956Z,101490.84
2022-12-31T10:32:43.359Z,101483.03
2022-12-31T10:35:56.005Z,101481.69
2022-12-31T10:39:03.040Z,101472.19
2022-12-31T10:42:22.124Z,101479.63
2022-12-31T10:45:29.460Z,101489.38
2022-12-31T10:48:51.268Z,101489.50
2022-12-31T10:51:53.900Z,101482.63
2022-12-31T10:55:03.574Z,101480.94
2022-12-31T10:58:38.373Z,101492.03
2022-12-31T11:01:34.650Z,101482.00
2022-12-31T11:05:12.761Z,101474.44
2022-12-31T11:08:26.273Z,101470.66
2022-12-31T11:11:49.777Z,101476.94
2022-12-31T11:14:44.737Z,101464.28
2022-12-31T11:18:06.428Z,101454.09
2022-12-31T11:20:55.996Z,101439.78
2022-12-31T11:24:20.848Z,101436.78
2022-12-31T11:27:29.504Z,101449.69
2022-12-31T11:30:35.888Z,101439.78
2022-12-31T11:33:15.169Z,101431.72
2022-12-31T11:36:45.200Z,101428.31
2022-12-31T11:39:49.947Z,101432.63
2022-12-31T11:42:31.094Z,101430.16
2022-12-31T11:45:10.992Z,101438.47
2022-12-31T11:48:28.453Z,101423.38
2022-12-31T11:51:31.353Z,101418.16
2022-12-31T11:54:39.072Z,101418.53
2022-12-31T11:57:29.861Z,101420.47
2022-12-31T12:00:20.306Z,101410.06
2022-12-31T12:03:02.086Z,101397.28
2022-12-31T12:05:30.631Z,101393.88
2022-12-31T12:07:58.990Z,101392.41
2022-12-31T12:10:47.495Z,101391.47
2022-12-31T12:13:17.672Z,101395.94
2022-12-31T12:15:54.783Z,101390.34
2022-12-31T12:18:41.940Z,101377.69
2022-12-31T12:21:19.519Z,101379.66
2022-12-31T12:24:16.472Z,101380.66
2022-12-31T12:26:45.538Z,101384.72
2022-12-31T12:29:30.199Z,101371.78
2022-12-31T12:32:15.340Z,101373.69
2022-12-31T12:34:49.143Z,101385.03
2022-12-31T12:37:35.283Z,101379.75
2022-12-31T12:40:29.806Z,101381.31
2022-12-31T12:42:59.240Z,101385.75
2022-12-31T12:45:52.120Z,101383.78
2022-12-31T12:48:34.757Z,101381.31
2022-12-31T12:51:11.220Z,101383.16
2022-12-31T12:54:44.548Z,101380.00
2022-12-31T12:57:43.216Z,101380.25
2022-12-31T13:00:25.036Z,101380.50
2022-12-31T13:04:32.477Z,101385.47
2022-12-31T13:07:19.426Z,101389.38
2022-12-31T13:10:48.836Z,101382.09
2022-12-31T13:13:34.947Z,101390.72
2022-12-31T13:16:40.139Z,101386.94
2022-12-31T13:19:41.981Z,101376.50
2022-12-31T13:22:37.977Z,101374.03
2022-12-31T13:26:05.343Z,101364.66
2022-12-31T13:28:35.608Z,101370.63
2022-12-31T13:31:15.516Z,101367.25
2022-12-31T13:33:58.530Z,101363.84
2022-12-31T13:36:28.688Z,101365.41
2022-12-31T13:39:01.196Z,101357.72
2022-12-31T13:42:21.921Z,101351.97
2022-12-31T13:45:02.989Z,101358.22
2022-12-31T13:47:44.509Z,101353.91
2022-12-31T13:50:41.008Z,101345.28
2022-12-31T13:53:32.376Z,101348.16
2022-12-31T13:56:06.513Z,101348.16
2022-12-31T13:59:22.793Z,101356.53
2022-12-31T14:02:32.861Z,101367.50
2022-12-31T14:05:17.095Z,101371.66
2022-12-31T14:08:06.426Z,101374.53
2022-12-31T14:11:50.827Z,101375.31
2022-12-31T14:14:51.255Z,101372.03
2022-12-31T14:17:48.048Z,101366.94
2022-12-31T14:20:49.894Z,101374.47
2022-12-31T14:24:19.892Z,101367.97
2022-12-31T14:26:55.366Z,101383.63
2022-12-31T14:29:46.696Z,101378.41
2022-12-31T14:32:35.548Z,101379.44
2022-12-31T14:35:37.600Z,101389.31
2022-12-31T14:39:17.296Z,101398.44
2022-12-31T14:42:18.681Z,101409.06
2022-12-31T14:45:30.858Z,101417.50
2022-12-31T14:48:22.873Z,101413.84
2022-12-31T14:50:50.315Z,101408.75
2022-12-31T14:53:27.107Z,101430.66
2022-12-31T14:56:24.607Z,101423.53
2022-12-31T14:59:00.402Z,101428.66
2022-12-31T15:01:27.976Z,101447.69
2022-12-31T15:03:57.998Z,101441.81
2022-12-31T15:07:04.776Z,101440.41
2022-12-31T15:09:59.714Z,101448.09
2022-12-31T15:13:10.161Z,101445.00
2022-12-31T15:16:24.374Z,101453.59
2022-12-31T15:19:17.248Z,101460.00
2022-12-31T15:22:35.417Z,101460.00
2022-12-31T15:25:04.541Z,101463.13
2022-12-31T15:27:38.496Z,101460.25
2022-12-31T15:30:07.569Z,101455.16
2022-12-31T15:32:43.116Z,101454.91
2022-12-31T15:35:22.367Z,101456.88
2022-12-31T15:38:39.080Z,101463.50
2022-12-31T15:41:36.790Z,101467.94
2022-12-31T15:44:51.796Z,101467.41
2022-12-31T15:47:37.316Z,101461.16
2022-12-31T15:50:19.285Z,101461.66
2022-12-31T15:53:03.189Z,101473.41
2022-12-31T15:55:44.211Z,101475.47
2022-12-31T15:58:18.333Z,101471.84
2022-12-31T16:01:13.910Z,101480.56
2022-12-31T16:04:05.556Z,101479.13
2022-12-31T16:06:39.263Z,101477.03
2022-12-31T16:09:19.505Z,101490.72
2022-12-31T16:11:46.903Z,101483.81
2022-12-31T16:14:37.684Z,101488.22
2022-12-31T16:17:06.765Z,101487.44
2022-12-31T16:19:46.118Z,101490.31
2022-12-31T16:22:45.925Z,101484.03
2022-12-31T16:25:36.299Z,101473.34
2022-12-31T16:28:04.279Z,101492.91
2022-12-31T16:30:35.882Z,101490.31
2022-12-31T16:33:09.986Z,101487.31
2022-12-31T16:35:37.543Z,101489.78
2022-12-31T16:38:19.243Z,101502.31
2022-12-31T16:41:16.759Z,101499.66
2022-12-31T16:43:46.699Z,101498.72
2022-12-31T16:46:27.122Z,101502.13
2022-12-31T16:49:20.430Z,101510.59
2022-12-31T16:51:49.547Z,101510.59
2022-12-31T16:54:50.675Z,101508.38
2022-12-31T16:57:24.195Z,101504.34
2022-12-31T17:00:01.082Z,101519.06
2022-12-31T17:02:44.130Z,101515.69
2022-12-31T17:05:29.947Z,101511.41
2022-12-31T17:07:57.986Z,101508.75
2022-12-31T17:10:36.478Z,101510.31
2022-12-31T17:13:30.095Z,101507.06
2022-12-31T17:15:59.119Z,101513.94
2022-12-31T17:18:36.265Z,101521.75
2022-12-31T17:21:09.845Z,101524.22
2022-12-31T17:23:39.919Z,101521.75
2022-12-31T17:26:23.107Z,101522.69
2022-12-31T17:28:53.850Z,101518.41
2022-12-31T17:31:37.170Z,101530.25
2022-12-31T17:34:15.139Z,101531.69
2022-12-31T17:37:06.594Z,101534.56
2022-12-31T17:39:49.059Z,101545.88
2022-12-31T17:42:36.718Z,101540.03
2022-12-31T17:45:21.718Z,101539.53
2022-12-31T17:47:53.595Z,101541.06
2022-12-31T17:50:24.939Z,101539.25
2022-12-31T17:53:12.014Z,101561.63
2022-12-31T17:55:39.919Z,101571.22
2022-12-31T17:58:07.671Z,101572.25
2022-12-31T18:00:37.325Z,101577.19
2022-12-31T18:03:04.630Z,101580.81
2022-12-31T18:05:31.866Z,101581.88
2022-12-31T18:07:59.109Z,101570.47
2022-12-31T18:10:29.343Z,101565.75
2022-12-31T18:12:58.825Z,101568.59
2022-12-31T18:15:26.108Z,101572.34
2022-12-31T18:17:53.342Z,101566.56
2022-12-31T18:20:20.747Z,101567.09
2022-12-31T18:22:48.163Z,101589.59
2022-12-31T18:25:24.328Z,101590.50
2022-12-31T18:27:52.703Z,101592.00
2022-12-31T18:30:19.891Z,101591.72
2022-12-31T18:32:47.419Z,101595.06
2022-12-31T18:35:49.060Z,101590.66
2022-12-31T18:38:18.583Z,101594.94
2022-12-31T18:40:58.523Z,101606.41
2022-12-31T18:43:25.959Z,101601.56
2022-12-31T18:45:53.492Z,101610.22
2022-12-31T18:48:20.867Z,101609.28
2022-12-31T18:50:48.764Z,101602.28
2022-12-31T18:53:22.227Z,101611.47
2022-12-31T18:55:57.705Z,101619.16
2022-12-31T18:58:24.980Z,101619.41
2022-12-31T19:00:52.702Z,101624.28
2022-12-31T19:03:27.321Z,101625.75
2022-12-31T19:05:54.765Z,101620.81
2022-12-31T19:08:23.653Z,101632.81
2022-12-31T19:10:53.440Z,101641.03
2022-12-31T19:13:20.927Z,101635.69
2022-12-31T19:15:53.275Z,101629.19
2022-12-31T19:18:20.526Z,101634.91
2022-12-31T19:20:47.809Z,101634.63
2022-12-31T19:23:19.055Z,101624.84
2022-12-31T19:25:48.894Z,101630.66
2022-12-31T19:28:26.554Z,101625.47
2022-12-31T19:30:54.532Z,101626.75
2022-12-31T19:33:22.338Z,101622.44
2022-12-31T19:35:49.680Z,101620.91
2022-12-31T19:38:26.684Z,101630.41
2022-12-31T19:40:55.171Z,101633.78
2022-12-31T19:43:23.851Z,101628.84
2022-12-31T19:45:51.853Z,101630.09
2022-12-31T19:48:30.509Z,101633.34
2022-12-31T19:50:59.978Z,101635.19
2022-12-31T19:53:28.521Z,101643.91
2022-12-31T19:55:55.697Z,101637.91
2022-12-31T19:58:26.518Z,101638.44
2022-12-31T20:01:02.735Z,101641.16
2022-12-31T20:03:33.077Z,101650.09
2022-12-31T20:06:09.342Z,101650.09
2022-12-31T20:08:38.838Z,101649.81
2022-12-31T20:11:18.619Z,101653.25
2022-12-31T20:13:48.885Z,101647.13
2022-12-31T20:16:20.590Z,101651.56
2022-12-31T20:18:48.451Z,101648.94
2022-12-31T20:21:25.097Z,101646.34
2022-12-31T20:23:54.083Z,101651.09
2022-12-31T20:26:24.604Z,101644.31
2022-12-31T20:28:53.354Z,101643.41
2022-12-31T20:31:25.360Z,101637.16
2022-12-31T20:33:54.845Z,101640.97
2022-12-31T20:36:23.057Z,101642.56
2022-12-31T20:38:50.586Z,101637.84
2022-12-31T20:41:22.056Z,101638.78
2022-12-31T20:43:50.176Z,101636.94
2022-12-31T20:46:24.722Z,101642.13
2022-12-31T20:48:56.126Z,101639.69
2022-12-31T20:51:24.231Z,101641.38
2022-12-31T20:53:59.647Z,101637.72
2022-12-31T20:56:31.587Z,101637.22
2022-12-31T20:58:59.519Z,101639.06
2022-12-31T21:01:36.373Z,101637.06
2022-12-31T21:04:15.093Z,101645.66
2022-12-31T21:06:42.527Z,101656.84
2022-12-31T21:09:10.152Z,101653.03
2022-12-31T21:11:56.075Z,101640.97
2022-12-31T21:14:23.328Z,101648.78
2022-12-31T21:16:50.772Z,101646.78
2022-12-31T21:19:17.961Z,101649.25
2022-12-31T21:21:45.199Z,101650.16
2022-12-31T21:24:12.451Z,101646.34
2022-12-31T21:26:39.648Z,101641.72
2022-12-31T21:29:06.889Z,101646.44
2022-12-31T21:31:34.162Z,101648.53
2022-12-31T21:34:01.479Z,101648.69
2022-12-31T21:36:28.791Z,101647.28
2022-12-31T21:38:56.061Z,101654.03
2022-12-31T21:41:41.842Z,101655.56
2022-12-31T21:44:09.065Z,101652.22
2022-12-31T21:46:36.379Z,101656.50
2022-12-31T21:49:04.049Z,101661.84
2022-12-31T21:51:31.230Z,101655.28
2022-12-31T21:53:58.827Z,101655.28
2022-12-31T21:56:26.062Z,101650.88
2022-12-31T21:59:21.580Z,101652.81
2022-12-31T22:02:07.380Z,101651.94
2022-12-31T22:07:21.798Z,101656.56
2022-12-31T22:09:48.939Z,101663.31
2022-12-31T22:12:16.100Z,101654.72
2022-12-31T22:15:15.726Z,101653.19
2022-12-31T22:17:30.679Z,101658.38
2022-12-31T22:20:25.934Z,101652.53
2022-12-31T22:22:45.079Z,101660.78
2022-12-31T22:25:12.321Z,101661.84
2022-12-31T22:27:39.595Z,101657.06
2022-12-31T22:30:08.459Z,101653.53
2022-12-31T22:32:35.727Z,101665.50
2022-12-31T22:35:03.089Z,101662.91
2022-12-31T22:40:17.719Z,101661.13
2022-12-31T22:42:44.976Z,101656.84
2022-12-31T22:45:12.298Z,101643.56
2022-12-31T22:47:39.622Z,101649.53
2022-12-31T22:50:07.658Z,101653.19
2022-12-31T22:52:34.933Z,101657.59
2022-12-31T22:55:02.363Z,101662.66
2022-12-31T22:57:29.640Z,101659.31
2022-12-31T22:59:56.786Z,101651.50
2022-12-31T23:02:23.960Z,101657.59
2022-12-31T23:04:51.240Z,101659.59
2022-12-31T23:07:18.469Z,101655.28
2022-12-31T23:10:04.237Z,101658.16
2022-12-31T23:12:31.507Z,101664.72
2022-12-31T23:15:17.170Z,101661.06
2022-12-31T23:18:03.079Z,101656.63
2022-12-31T23:20:48.943Z,101657.84
2022-12-31T23:23:17.057Z,101653.53
2022-12-31T23:25:50.135Z,101651.72
2022-12-31T23:28:23.271Z,101644.69
2022-12-31T23:30:51.729Z,101655.84
2022-12-31T23:33:26.235Z,101649.75
2022-12-31T23:36:06.303Z,101642.69
2022-12-31T23:38:33.676Z,101639.34
2022-12-31T23:41:00.869Z,101637.16
2022-12-31T23:43:28.049Z,101638.47
2022-12-31T23:45:55.332Z,101623.66
2022-12-31T23:48:22.574Z,101623.38
2022-12-31T23:50:53.875Z,101637.16
2022-12-31T23:53:25.038Z,101631.97
2022-12-31T23:55:53.120Z,101625.97
2022-12-31T23:58:21.131Z,101631.72
